sensor_id;sensor_type;location;lat;lon;timestamp;temperature;humidity
17632;DHT22;8934;51.194;17.150;2023-07-13T00:00:42;18.30;99.90
17632;DHT22;8934;51.194;17.150;2023-07-13T00:03:30;18.30;99.90
17632;DHT22;8934;51.194;17.150;2023-07-13T00:06:21;18.30;99.90
17632;DHT22;8934;51.194;17.150;2023-07-13T00:09:09;18.30;99.90
17632;DHT22;8934;51.194;17.150;2023-07-13T00:11:58;18.30;99.90
17632;DHT22;8934;51.194;17.150;2023-07-13T00:14:45;18.30;99.90
17632;DHT22;8934;51.194;17.150;2023-07-13T00:17:33;18.30;99.90
17632;DHT22;8934;51.194;17.150;2023-07-13T00:20:22;18.20;99.90
17632;DHT22;8934;51.194;17.150;2023-07-13T00:23:11;18.20;99.90
17632;DHT22;8934;51.194;17.150;2023-07-13T00:25:59;18.20;99.90
17632;DHT22;8934;51.194;17.150;2023-07-13T00:28:48;18.10;99.90
17632;DHT22;8934;51.194;17.150;2023-07-13T00:31:36;18.00;99.90
17632;DHT22;8934;51.194;17.150;2023-07-13T00:34:24;17.90;99.90
17632;DHT22;8934;51.194;17.150;2023-07-13T00:37:12;17.90;99.90
17632;DHT22;8934;51.194;17.150;2023-07-13T00:39:59;17.90;99.90
17632;DHT22;8934;51.194;17.150;2023-07-13T00:42:47;17.90;99.90
17632;DHT22;8934;51.194;17.150;2023-07-13T00:49:04;17.90;99.90
17632;DHT22;8934;51.194;17.150;2023-07-13T00:51:55;17.80;99.90
17632;DHT22;8934;51.194;17.150;2023-07-13T00:54:45;17.70;99.90
17632;DHT22;8934;51.194;17.150;2023-07-13T00:57:34;17.70;99.90
17632;DHT22;8934;51.194;17.150;2023-07-13T01:00:23;17.60;99.90
17632;DHT22;8934;51.194;17.150;2023-07-13T01:03:12;17.50;99.90
17632;DHT22;8934;51.194;17.150;2023-07-13T01:06:01;17.40;99.90
17632;DHT22;8934;51.194;17.150;2023-07-13T01:08:50;17.40;99.90
17632;DHT22;8934;51.194;17.150;2023-07-13T01:11:38;17.30;99.90
17632;DHT22;8934;51.194;17.150;2023-07-13T01:14:26;17.30;99.90
17632;DHT22;8934;51.194;17.150;2023-07-13T01:17:14;17.30;99.90
17632;DHT22;8934;51.194;17.150;2023-07-13T01:20:01;17.30;99.90
17632;DHT22;8934;51.194;17.150;2023-07-13T01:22:52;17.30;99.90
17632;DHT22;8934;51.194;17.150;2023-07-13T01:25:40;17.30;99.90
17632;DHT22;8934;51.194;17.150;2023-07-13T01:28:28;17.20;99.90
17632;DHT22;8934;51.194;17.150;2023-07-13T01:31:18;17.20;99.90
17632;DHT22;8934;51.194;17.150;2023-07-13T01:34:05;17.10;99.90
17632;DHT22;8934;51.194;17.150;2023-07-13T01:36:55;17.00;99.90
17632;DHT22;8934;51.194;17.150;2023-07-13T01:39:45;17.00;99.90
17632;DHT22;8934;51.194;17.150;2023-07-13T01:42:32;17.10;99.90
17632;DHT22;8934;51.194;17.150;2023-07-13T01:45:20;17.00;99.90
17632;DHT22;8934;51.194;17.150;2023-07-13T01:48:08;17.00;99.90
17632;DHT22;8934;51.194;17.150;2023-07-13T01:50:55;16.90;99.90
17632;DHT22;8934;51.194;17.150;2023-07-13T01:53:43;16.80;99.90
17632;DHT22;8934;51.194;17.150;2023-07-13T01:56:31;16.80;99.90
17632;DHT22;8934;51.194;17.150;2023-07-13T01:59:19;16.70;99.90
17632;DHT22;8934;51.194;17.150;2023-07-13T02:02:07;16.70;99.90
17632;DHT22;8934;51.194;17.150;2023-07-13T02:04:55;16.60;99.90
17632;DHT22;8934;51.194;17.150;2023-07-13T02:07:42;16.50;99.90
17632;DHT22;8934;51.194;17.150;2023-07-13T02:10:30;16.50;99.90
17632;DHT22;8934;51.194;17.150;2023-07-13T02:13:19;16.50;99.90
17632;DHT22;8934;51.194;17.150;2023-07-13T02:16:07;16.60;99.90
17632;DHT22;8934;51.194;17.150;2023-07-13T02:18:55;16.70;99.90
17632;DHT22;8934;51.194;17.150;2023-07-13T02:21:43;16.70;99.90
17632;DHT22;8934;51.194;17.150;2023-07-13T02:24:30;16.60;99.90
17632;DHT22;8934;51.194;17.150;2023-07-13T02:27:18;16.50;99.90
17632;DHT22;8934;51.194;17.150;2023-07-13T02:30:11;16.40;99.90
17632;DHT22;8934;51.194;17.150;2023-07-13T02:32:58;16.30;99.90
17632;DHT22;8934;51.194;17.150;2023-07-13T02:35:46;16.20;99.90
17632;DHT22;8934;51.194;17.150;2023-07-13T02:38:34;16.20;99.90
17632;DHT22;8934;51.194;17.150;2023-07-13T02:41:23;16.10;99.90
17632;DHT22;8934;51.194;17.150;2023-07-13T02:44:12;16.10;99.90
17632;DHT22;8934;51.194;17.150;2023-07-13T02:47:01;16.00;99.90
17632;DHT22;8934;51.194;17.150;2023-07-13T02:49:49;16.00;99.90
17632;DHT22;8934;51.194;17.150;2023-07-13T02:52:36;15.90;99.90
17632;DHT22;8934;51.194;17.150;2023-07-13T02:55:24;15.90;99.90
17632;DHT22;8934;51.194;17.150;2023-07-13T02:58:12;15.90;99.90
17632;DHT22;8934;51.194;17.150;2023-07-13T03:01:07;15.80;99.90
17632;DHT22;8934;51.194;17.150;2023-07-13T03:03:56;15.80;99.90
17632;DHT22;8934;51.194;17.150;2023-07-13T03:06:44;15.80;99.90
17632;DHT22;8934;51.194;17.150;2023-07-13T03:09:33;15.90;99.90
17632;DHT22;8934;51.194;17.150;2023-07-13T03:12:24;15.90;99.90
17632;DHT22;8934;51.194;17.150;2023-07-13T03:15:12;15.90;99.90
17632;DHT22;8934;51.194;17.150;2023-07-13T03:18:03;16.00;99.90
17632;DHT22;8934;51.194;17.150;2023-07-13T03:20:53;16.10;99.90
17632;DHT22;8934;51.194;17.150;2023-07-13T03:23:41;16.10;99.90
17632;DHT22;8934;51.194;17.150;2023-07-13T03:26:29;16.20;99.90
17632;DHT22;8934;51.194;17.150;2023-07-13T03:29:16;16.20;99.90
17632;DHT22;8934;51.194;17.150;2023-07-13T03:32:05;16.30;99.90
17632;DHT22;8934;51.194;17.150;2023-07-13T03:34:53;16.40;99.90
17632;DHT22;8934;51.194;17.150;2023-07-13T03:37:43;16.50;99.90
17632;DHT22;8934;51.194;17.150;2023-07-13T03:40:36;16.60;99.90
17632;DHT22;8934;51.194;17.150;2023-07-13T03:43:24;16.70;99.90
17632;DHT22;8934;51.194;17.150;2023-07-13T03:46:12;16.80;99.90
17632;DHT22;8934;51.194;17.150;2023-07-13T03:49:00;16.80;99.90
17632;DHT22;8934;51.194;17.150;2023-07-13T03:51:48;16.90;99.90
17632;DHT22;8934;51.194;17.150;2023-07-13T03:54:40;17.00;99.90
17632;DHT22;8934;51.194;17.150;2023-07-13T03:57:28;17.00;99.90
17632;DHT22;8934;51.194;17.150;2023-07-13T04:00:17;17.10;99.90
17632;DHT22;8934;51.194;17.150;2023-07-13T04:03:05;17.20;99.90
17632;DHT22;8934;51.194;17.150;2023-07-13T04:05:54;17.30;99.90
17632;DHT22;8934;51.194;17.150;2023-07-13T04:08:42;17.40;99.90
17632;DHT22;8934;51.194;17.150;2023-07-13T04:11:31;17.50;99.90
17632;DHT22;8934;51.194;17.150;2023-07-13T04:14:19;17.60;99.90
17632;DHT22;8934;51.194;17.150;2023-07-13T04:17:07;17.80;99.90
17632;DHT22;8934;51.194;17.150;2023-07-13T04:19:55;17.90;99.90
17632;DHT22;8934;51.194;17.150;2023-07-13T04:22:42;18.00;99.90
17632;DHT22;8934;51.194;17.150;2023-07-13T04:25:29;18.10;99.90
17632;DHT22;8934;51.194;17.150;2023-07-13T04:28:19;18.20;99.90
17632;DHT22;8934;51.194;17.150;2023-07-13T04:31:07;18.30;99.90
17632;DHT22;8934;51.194;17.150;2023-07-13T04:33:54;18.30;99.90
17632;DHT22;8934;51.194;17.150;2023-07-13T04:36:42;18.30;99.90
17632;DHT22;8934;51.194;17.150;2023-07-13T04:39:29;18.30;99.90
17632;DHT22;8934;51.194;17.150;2023-07-13T04:42:17;18.30;99.90
17632;DHT22;8934;51.194;17.150;2023-07-13T04:45:07;18.20;99.90
17632;DHT22;8934;51.194;17.150;2023-07-13T04:47:56;18.20;99.90
17632;DHT22;8934;51.194;17.150;2023-07-13T04:50:44;18.10;99.90
17632;DHT22;8934;51.194;17.150;2023-07-13T04:53:33;17.90;99.90
17632;DHT22;8934;51.194;17.150;2023-07-13T04:56:21;17.70;99.90
17632;DHT22;8934;51.194;17.150;2023-07-13T04:59:08;17.50;99.90
17632;DHT22;8934;51.194;17.150;2023-07-13T05:01:57;17.20;99.90
17632;DHT22;8934;51.194;17.150;2023-07-13T05:04:46;17.00;99.90
17632;DHT22;8934;51.194;17.150;2023-07-13T05:07:34;16.80;99.90
17632;DHT22;8934;51.194;17.150;2023-07-13T05:10:22;16.70;99.90
17632;DHT22;8934;51.194;17.150;2023-07-13T05:13:10;16.50;99.90
17632;DHT22;8934;51.194;17.150;2023-07-13T05:16:00;16.40;99.90
17632;DHT22;8934;51.194;17.150;2023-07-13T05:18:49;16.30;99.90
17632;DHT22;8934;51.194;17.150;2023-07-13T05:21:37;16.30;99.90
17632;DHT22;8934;51.194;17.150;2023-07-13T05:24:25;16.20;99.90
17632;DHT22;8934;51.194;17.150;2023-07-13T05:27:13;16.20;99.90
17632;DHT22;8934;51.194;17.150;2023-07-13T05:30:01;16.10;99.90
17632;DHT22;8934;51.194;17.150;2023-07-13T05:32:49;16.10;99.90
17632;DHT22;8934;51.194;17.150;2023-07-13T05:35:38;16.10;99.90
17632;DHT22;8934;51.194;17.150;2023-07-13T05:38:25;16.10;99.90
17632;DHT22;8934;51.194;17.150;2023-07-13T05:41:13;16.10;99.90
17632;DHT22;8934;51.194;17.150;2023-07-13T05:44:01;16.20;99.90
17632;DHT22;8934;51.194;17.150;2023-07-13T05:46:48;16.20;99.90
17632;DHT22;8934;51.194;17.150;2023-07-13T05:49:36;16.30;99.90
17632;DHT22;8934;51.194;17.150;2023-07-13T05:52:25;16.40;99.90
17632;DHT22;8934;51.194;17.150;2023-07-13T05:55:13;16.40;99.90
17632;DHT22;8934;51.194;17.150;2023-07-13T05:58:01;16.40;99.90
17632;DHT22;8934;51.194;17.150;2023-07-13T06:00:48;16.40;99.90
17632;DHT22;8934;51.194;17.150;2023-07-13T06:03:36;16.40;99.90
17632;DHT22;8934;51.194;17.150;2023-07-13T06:06:25;16.50;99.90
17632;DHT22;8934;51.194;17.150;2023-07-13T06:09:14;16.50;99.90
17632;DHT22;8934;51.194;17.150;2023-07-13T06:12:02;16.60;99.90
17632;DHT22;8934;51.194;17.150;2023-07-13T06:14:50;16.60;99.90
17632;DHT22;8934;51.194;17.150;2023-07-13T06:17:38;16.70;99.90
17632;DHT22;8934;51.194;17.150;2023-07-13T06:20:25;16.80;99.90
17632;DHT22;8934;51.194;17.150;2023-07-13T06:23:13;16.90;99.90
17632;DHT22;8934;51.194;17.150;2023-07-13T06:26:02;17.10;99.90
17632;DHT22;8934;51.194;17.150;2023-07-13T06:28:50;17.20;99.90
17632;DHT22;8934;51.194;17.150;2023-07-13T06:31:37;17.40;99.90
17632;DHT22;8934;51.194;17.150;2023-07-13T06:34:25;17.60;99.90
17632;DHT22;8934;51.194;17.150;2023-07-13T06:37:12;17.60;99.90
17632;DHT22;8934;51.194;17.150;2023-07-13T06:40:00;17.70;99.90
17632;DHT22;8934;51.194;17.150;2023-07-13T06:42:49;17.90;99.90
17632;DHT22;8934;51.194;17.150;2023-07-13T06:45:41;18.00;99.90
17632;DHT22;8934;51.194;17.150;2023-07-13T06:48:29;18.20;99.90
17632;DHT22;8934;51.194;17.150;2023-07-13T06:51:16;18.30;99.90
17632;DHT22;8934;51.194;17.150;2023-07-13T06:54:04;18.40;99.90
17632;DHT22;8934;51.194;17.150;2023-07-13T06:56:52;18.40;99.90
17632;DHT22;8934;51.194;17.150;2023-07-13T06:59:41;18.50;99.90
17632;DHT22;8934;51.194;17.150;2023-07-13T07:02:28;18.60;99.90
17632;DHT22;8934;51.194;17.150;2023-07-13T07:05:16;18.70;99.90
17632;DHT22;8934;51.194;17.150;2023-07-13T07:08:04;18.60;99.90
17632;DHT22;8934;51.194;17.150;2023-07-13T07:10:52;18.50;99.90
17632;DHT22;8934;51.194;17.150;2023-07-13T07:13:40;18.30;99.90
17632;DHT22;8934;51.194;17.150;2023-07-13T07:16:30;18.20;99.90
17632;DHT22;8934;51.194;17.150;2023-07-13T07:19:17;18.10;99.90
17632;DHT22;8934;51.194;17.150;2023-07-13T07:22:05;18.00;99.90
17632;DHT22;8934;51.194;17.150;2023-07-13T07:24:53;17.90;99.90
17632;DHT22;8934;51.194;17.150;2023-07-13T07:27:41;17.90;99.90
17632;DHT22;8934;51.194;17.150;2023-07-13T07:30:31;17.80;99.90
17632;DHT22;8934;51.194;17.150;2023-07-13T07:33:24;17.80;99.90
17632;DHT22;8934;51.194;17.150;2023-07-13T07:36:11;17.80;99.90
17632;DHT22;8934;51.194;17.150;2023-07-13T07:39:02;17.70;99.90
17632;DHT22;8934;51.194;17.150;2023-07-13T07:41:49;17.60;99.90
17632;DHT22;8934;51.194;17.150;2023-07-13T07:44:40;17.50;99.90
17632;DHT22;8934;51.194;17.150;2023-07-13T07:47:28;17.60;99.90
17632;DHT22;8934;51.194;17.150;2023-07-13T07:50:17;17.60;99.90
17632;DHT22;8934;51.194;17.150;2023-07-13T07:53:06;17.70;99.90
17632;DHT22;8934;51.194;17.150;2023-07-13T07:55:56;17.80;99.90
17632;DHT22;8934;51.194;17.150;2023-07-13T07:59:04;17.80;99.90
17632;DHT22;8934;51.194;17.150;2023-07-13T08:01:54;17.90;99.90
17632;DHT22;8934;51.194;17.150;2023-07-13T08:04:45;17.90;99.90
17632;DHT22;8934;51.194;17.150;2023-07-13T08:07:37;17.90;99.90
17632;DHT22;8934;51.194;17.150;2023-07-13T08:10:24;18.00;99.90
17632;DHT22;8934;51.194;17.150;2023-07-13T08:13:12;18.20;99.90
17632;DHT22;8934;51.194;17.150;2023-07-13T08:16:00;18.40;99.90
17632;DHT22;8934;51.194;17.150;2023-07-13T08:18:48;18.60;99.90
17632;DHT22;8934;51.194;17.150;2023-07-13T08:21:36;18.90;99.90
17632;DHT22;8934;51.194;17.150;2023-07-13T08:24:26;19.10;99.90
17632;DHT22;8934;51.194;17.150;2023-07-13T08:27:13;19.40;99.90
17632;DHT22;8934;51.194;17.150;2023-07-13T08:30:01;19.70;99.90
17632;DHT22;8934;51.194;17.150;2023-07-13T08:32:49;20.00;99.90
17632;DHT22;8934;51.194;17.150;2023-07-13T08:35:37;20.30;99.90
17632;DHT22;8934;51.194;17.150;2023-07-13T08:38:24;20.60;99.90
17632;DHT22;8934;51.194;17.150;2023-07-13T08:41:15;21.00;99.90
17632;DHT22;8934;51.194;17.150;2023-07-13T08:44:07;21.10;99.90
17632;DHT22;8934;51.194;17.150;2023-07-13T08:47:01;21.20;99.90
17632;DHT22;8934;51.194;17.150;2023-07-13T08:49:50;21.20;99.90
17632;DHT22;8934;51.194;17.150;2023-07-13T08:52:40;21.30;99.90
17632;DHT22;8934;51.194;17.150;2023-07-13T08:55:31;21.30;99.90
17632;DHT22;8934;51.194;17.150;2023-07-13T08:58:25;21.30;99.90
17632;DHT22;8934;51.194;17.150;2023-07-13T09:24:31;21.30;99.90
17632;DHT22;8934;51.194;17.150;2023-07-13T09:27:23;22.90;99.90
17632;DHT22;8934;51.194;17.150;2023-07-13T09:30:27;23.20;99.90
17632;DHT22;8934;51.194;17.150;2023-07-13T09:33:19;23.50;99.90
17632;DHT22;8934;51.194;17.150;2023-07-13T09:36:18;23.60;99.90
17632;DHT22;8934;51.194;17.150;2023-07-13T09:39:12;23.70;99.90
17632;DHT22;8934;51.194;17.150;2023-07-13T09:42:11;23.80;99.90
17632;DHT22;8934;51.194;17.150;2023-07-13T09:45:02;24.00;99.90
17632;DHT22;8934;51.194;17.150;2023-07-13T09:47:59;24.10;99.90
17632;DHT22;8934;51.194;17.150;2023-07-13T09:50:48;24.30;99.90
17632;DHT22;8934;51.194;17.150;2023-07-13T09:53:36;24.30;99.90
17632;DHT22;8934;51.194;17.150;2023-07-13T09:56:27;24.30;99.90
17632;DHT22;8934;51.194;17.150;2023-07-13T09:59:20;24.40;99.90
17632;DHT22;8934;51.194;17.150;2023-07-13T10:02:23;24.50;99.90
17632;DHT22;8934;51.194;17.150;2023-07-13T10:05:14;24.60;99.90
17632;DHT22;8934;51.194;17.150;2023-07-13T10:08:04;24.80;99.90
17632;DHT22;8934;51.194;17.150;2023-07-13T10:10:58;24.70;99.90
17632;DHT22;8934;51.194;17.150;2023-07-13T10:13:51;24.90;99.90
17632;DHT22;8934;51.194;17.150;2023-07-13T10:16:39;25.10;99.90
17632;DHT22;8934;51.194;17.150;2023-07-13T10:19:31;25.30;99.90
17632;DHT22;8934;51.194;17.150;2023-07-13T10:22:26;25.70;99.90
17632;DHT22;8934;51.194;17.150;2023-07-13T10:25:19;26.10;99.90
17632;DHT22;8934;51.194;17.150;2023-07-13T10:28:16;26.60;99.90
17632;DHT22;8934;51.194;17.150;2023-07-13T10:31:12;26.90;99.90
17632;DHT22;8934;51.194;17.150;2023-07-13T10:34:02;26.80;99.90
17632;DHT22;8934;51.194;17.150;2023-07-13T10:36:52;26.80;99.90
17632;DHT22;8934;51.194;17.150;2023-07-13T10:39:40;26.70;99.90
17632;DHT22;8934;51.194;17.150;2023-07-13T10:42:32;26.60;99.90
17632;DHT22;8934;51.194;17.150;2023-07-13T10:45:22;27.00;99.90
17632;DHT22;8934;51.194;17.150;2023-07-13T10:48:12;27.10;99.90
17632;DHT22;8934;51.194;17.150;2023-07-13T10:51:03;26.90;99.90
17632;DHT22;8934;51.194;17.150;2023-07-13T10:54:16;26.80;99.90
17632;DHT22;8934;51.194;17.150;2023-07-13T10:57:21;26.60;99.90
17632;DHT22;8934;51.194;17.150;2023-07-13T11:00:16;26.70;99.90
17632;DHT22;8934;51.194;17.150;2023-07-13T11:03:10;26.60;99.90
17632;DHT22;8934;51.194;17.150;2023-07-13T11:06:08;26.60;99.90
17632;DHT22;8934;51.194;17.150;2023-07-13T11:08:57;27.00;99.90
17632;DHT22;8934;51.194;17.150;2023-07-13T11:11:46;27.60;99.90
17632;DHT22;8934;51.194;17.150;2023-07-13T11:14:35;28.10;99.90
17632;DHT22;8934;51.194;17.150;2023-07-13T11:17:35;28.50;99.90
17632;DHT22;8934;51.194;17.150;2023-07-13T11:20:35;28.50;99.90
17632;DHT22;8934;51.194;17.150;2023-07-13T11:23:30;28.60;99.90
17632;DHT22;8934;51.194;17.150;2023-07-13T11:26:38;28.70;99.90
17632;DHT22;8934;51.194;17.150;2023-07-13T11:29:37;28.80;99.90
17632;DHT22;8934;51.194;17.150;2023-07-13T11:32:31;28.90;99.90
17632;DHT22;8934;51.194;17.150;2023-07-13T11:35:23;28.60;99.90
17632;DHT22;8934;51.194;17.150;2023-07-13T11:38:16;28.10;99.90
17632;DHT22;8934;51.194;17.150;2023-07-13T11:41:23;27.80;99.90
17632;DHT22;8934;51.194;17.150;2023-07-13T11:44:14;27.80;99.90
17632;DHT22;8934;51.194;17.150;2023-07-13T11:47:09;27.80;99.90
17632;DHT22;8934;51.194;17.150;2023-07-13T11:49:58;27.50;99.90
17632;DHT22;8934;51.194;17.150;2023-07-13T11:52:46;27.10;99.90
17632;DHT22;8934;51.194;17.150;2023-07-13T11:55:38;27.00;99.90
17632;DHT22;8934;51.194;17.150;2023-07-13T11:58:26;27.00;99.90
17632;DHT22;8934;51.194;17.150;2023-07-13T12:01:21;27.10;99.90
17632;DHT22;8934;51.194;17.150;2023-07-13T12:04:21;27.20;99.90
17632;DHT22;8934;51.194;17.150;2023-07-13T12:07:16;27.30;99.90
17632;DHT22;8934;51.194;17.150;2023-07-13T12:10:15;26.90;99.90
17632;DHT22;8934;51.194;17.150;2023-07-13T12:13:05;26.50;99.90
17632;DHT22;8934;51.194;17.150;2023-07-13T12:15:53;26.30;99.90
17632;DHT22;8934;51.194;17.150;2023-07-13T12:18:42;26.20;99.90
17632;DHT22;8934;51.194;17.150;2023-07-13T12:21:33;26.10;99.90
17632;DHT22;8934;51.194;17.150;2023-07-13T12:24:24;26.30;99.90
17632;DHT22;8934;51.194;17.150;2023-07-13T12:27:19;26.50;99.90
17632;DHT22;8934;51.194;17.150;2023-07-13T12:30:23;26.60;99.90
17632;DHT22;8934;51.194;17.150;2023-07-13T12:33:13;26.80;99.90
17632;DHT22;8934;51.194;17.150;2023-07-13T12:36:03;27.10;99.90
17632;DHT22;8934;51.194;17.150;2023-07-13T12:38:51;27.40;99.90
17632;DHT22;8934;51.194;17.150;2023-07-13T12:41:41;27.50;99.90
17632;DHT22;8934;51.194;17.150;2023-07-13T12:44:32;27.80;99.90
17632;DHT22;8934;51.194;17.150;2023-07-13T12:47:21;28.20;99.90
17632;DHT22;8934;51.194;17.150;2023-07-13T12:50:14;28.80;99.90
17632;DHT22;8934;51.194;17.150;2023-07-13T12:53:04;28.70;99.90
17632;DHT22;8934;51.194;17.150;2023-07-13T12:55:55;28.80;99.90
17632;DHT22;8934;51.194;17.150;2023-07-13T12:58:47;29.10;99.90
17632;DHT22;8934;51.194;17.150;2023-07-13T13:01:41;29.20;99.90
17632;DHT22;8934;51.194;17.150;2023-07-13T13:04:30;29.10;99.90
17632;DHT22;8934;51.194;17.150;2023-07-13T13:07:18;29.50;99.90
17632;DHT22;8934;51.194;17.150;2023-07-13T13:10:11;29.90;99.90
17632;DHT22;8934;51.194;17.150;2023-07-13T13:13:00;29.80;99.90
17632;DHT22;8934;51.194;17.150;2023-07-13T13:15:49;30.00;99.90
17632;DHT22;8934;51.194;17.150;2023-07-13T13:18:36;30.30;99.90
17632;DHT22;8934;51.194;17.150;2023-07-13T13:21:24;30.60;99.90
17632;DHT22;8934;51.194;17.150;2023-07-13T13:24:14;30.90;99.90
17632;DHT22;8934;51.194;17.150;2023-07-13T13:27:03;31.00;99.90
17632;DHT22;8934;51.194;17.150;2023-07-13T13:29:51;30.90;99.90
17632;DHT22;8934;51.194;17.150;2023-07-13T13:32:40;30.60;99.90
17632;DHT22;8934;51.194;17.150;2023-07-13T13:35:29;30.40;99.90
17632;DHT22;8934;51.194;17.150;2023-07-13T13:38:19;30.60;99.90
17632;DHT22;8934;51.194;17.150;2023-07-13T13:41:09;31.00;99.90
17632;DHT22;8934;51.194;17.150;2023-07-13T13:43:57;31.20;99.90
17632;DHT22;8934;51.194;17.150;2023-07-13T13:46:47;31.20;99.90
17632;DHT22;8934;51.194;17.150;2023-07-13T13:49:36;31.30;98.80
17632;DHT22;8934;51.194;17.150;2023-07-13T13:52:25;31.60;99.90
17632;DHT22;8934;51.194;17.150;2023-07-13T13:55:14;31.60;97.30
17632;DHT22;8934;51.194;17.150;2023-07-13T13:58:02;31.50;96.80
17632;DHT22;8934;51.194;17.150;2023-07-13T14:00:50;31.40;96.20
17632;DHT22;8934;51.194;17.150;2023-07-13T14:03:39;31.80;96.90
17632;DHT22;8934;51.194;17.150;2023-07-13T14:06:28;32.10;93.60
17632;DHT22;8934;51.194;17.150;2023-07-13T14:09:17;32.10;92.20
17632;DHT22;8934;51.194;17.150;2023-07-13T14:12:09;32.20;94.50
17632;DHT22;8934;51.194;17.150;2023-07-13T14:14:58;32.20;94.30
17632;DHT22;8934;51.194;17.150;2023-07-13T14:17:45;31.90;90.50
17632;DHT22;8934;51.194;17.150;2023-07-13T14:20:36;31.90;90.00
17632;DHT22;8934;51.194;17.150;2023-07-13T14:23:24;31.90;91.60
17632;DHT22;8934;51.194;17.150;2023-07-13T14:26:15;32.20;93.20
17632;DHT22;8934;51.194;17.150;2023-07-13T14:29:12;32.30;92.70
17632;DHT22;8934;51.194;17.150;2023-07-13T14:32:00;32.30;85.80
17632;DHT22;8934;51.194;17.150;2023-07-13T14:34:48;31.60;89.30
17632;DHT22;8934;51.194;17.150;2023-07-13T14:37:36;31.10;91.40
17632;DHT22;8934;51.194;17.150;2023-07-13T14:40:28;30.80;90.20
17632;DHT22;8934;51.194;17.150;2023-07-13T14:43:17;30.60;91.00
17632;DHT22;8934;51.194;17.150;2023-07-13T14:46:04;30.20;92.00
17632;DHT22;8934;51.194;17.150;2023-07-13T14:48:53;29.80;91.40
17632;DHT22;8934;51.194;17.150;2023-07-13T14:51:42;29.60;92.80
17632;DHT22;8934;51.194;17.150;2023-07-13T14:54:29;29.70;92.70
17632;DHT22;8934;51.194;17.150;2023-07-13T14:57:19;30.10;91.10
17632;DHT22;8934;51.194;17.150;2023-07-13T15:00:13;30.50;93.40
17632;DHT22;8934;51.194;17.150;2023-07-13T15:03:04;31.20;94.20
17632;DHT22;8934;51.194;17.150;2023-07-13T15:05:52;31.50;92.00
17632;DHT22;8934;51.194;17.150;2023-07-13T15:08:41;31.20;90.80
17632;DHT22;8934;51.194;17.150;2023-07-13T15:11:28;30.70;92.20
17632;DHT22;8934;51.194;17.150;2023-07-13T15:14:17;30.30;91.90
17632;DHT22;8934;51.194;17.150;2023-07-13T15:17:08;30.10;93.30
17632;DHT22;8934;51.194;17.150;2023-07-13T15:20:05;29.40;92.20
17632;DHT22;8934;51.194;17.150;2023-07-13T15:22:53;28.50;94.60
17632;DHT22;8934;51.194;17.150;2023-07-13T15:25:42;28.20;95.50
17632;DHT22;8934;51.194;17.150;2023-07-13T15:28:30;27.60;96.90
17632;DHT22;8934;51.194;17.150;2023-07-13T15:31:21;27.10;97.80
17632;DHT22;8934;51.194;17.150;2023-07-13T15:34:12;26.90;98.00
17632;DHT22;8934;51.194;17.150;2023-07-13T15:36:59;27.50;99.10
17632;DHT22;8934;51.194;17.150;2023-07-13T15:39:47;28.40;96.90
17632;DHT22;8934;51.194;17.150;2023-07-13T15:42:34;29.30;97.70
17632;DHT22;8934;51.194;17.150;2023-07-13T15:45:25;30.10;95.60
17632;DHT22;8934;51.194;17.150;2023-07-13T15:48:16;30.90;95.40
17632;DHT22;8934;51.194;17.150;2023-07-13T15:51:12;31.40;95.80
17632;DHT22;8934;51.194;17.150;2023-07-13T15:54:03;31.50;92.80
17632;DHT22;8934;51.194;17.150;2023-07-13T15:56:52;31.10;92.20
17632;DHT22;8934;51.194;17.150;2023-07-13T15:59:40;30.40;94.40
17632;DHT22;8934;51.194;17.150;2023-07-13T16:02:29;29.90;95.50
17632;DHT22;8934;51.194;17.150;2023-07-13T16:05:18;29.50;95.60
17632;DHT22;8934;51.194;17.150;2023-07-13T16:08:18;29.10;95.70
17632;DHT22;8934;51.194;17.150;2023-07-13T16:11:16;28.80;96.90
17632;DHT22;8934;51.194;17.150;2023-07-13T16:14:05;28.70;95.20
17632;DHT22;8934;51.194;17.150;2023-07-13T16:16:53;28.80;96.50
17632;DHT22;8934;51.194;17.150;2023-07-13T16:19:43;28.90;96.00
17632;DHT22;8934;51.194;17.150;2023-07-13T16:22:32;28.70;96.30
17632;DHT22;8934;51.194;17.150;2023-07-13T16:25:21;28.40;96.60
17632;DHT22;8934;51.194;17.150;2023-07-13T16:28:10;28.00;97.10
17632;DHT22;8934;51.194;17.150;2023-07-13T16:30:58;27.70;97.40
17632;DHT22;8934;51.194;17.150;2023-07-13T16:33:48;27.50;96.90
17632;DHT22;8934;51.194;17.150;2023-07-13T16:36:36;27.10;98.60
17632;DHT22;8934;51.194;17.150;2023-07-13T16:39:26;26.80;99.90
17632;DHT22;8934;51.194;17.150;2023-07-13T16:42:14;26.40;99.90
17632;DHT22;8934;51.194;17.150;2023-07-13T16:45:02;26.20;99.90
17632;DHT22;8934;51.194;17.150;2023-07-13T16:47:50;25.80;99.90
17632;DHT22;8934;51.194;17.150;2023-07-13T16:50:38;25.60;99.90
17632;DHT22;8934;51.194;17.150;2023-07-13T16:53:29;25.50;99.90
17632;DHT22;8934;51.194;17.150;2023-07-13T16:56:19;25.40;99.90
17632;DHT22;8934;51.194;17.150;2023-07-13T16:59:13;25.50;99.90
17632;DHT22;8934;51.194;17.150;2023-07-13T17:02:04;25.90;99.90
17632;DHT22;8934;51.194;17.150;2023-07-13T17:05:01;26.60;99.90
17632;DHT22;8934;51.194;17.150;2023-07-13T17:07:49;27.30;99.90
17632;DHT22;8934;51.194;17.150;2023-07-13T17:10:36;27.70;99.90
17632;DHT22;8934;51.194;17.150;2023-07-13T17:13:26;27.70;99.90
17632;DHT22;8934;51.194;17.150;2023-07-13T17:16:14;27.60;99.90
17632;DHT22;8934;51.194;17.150;2023-07-13T17:19:05;27.70;99.90
17632;DHT22;8934;51.194;17.150;2023-07-13T17:21:52;28.00;99.90
17632;DHT22;8934;51.194;17.150;2023-07-13T17:24:40;28.20;99.90
17632;DHT22;8934;51.194;17.150;2023-07-13T17:27:30;28.30;99.90
17632;DHT22;8934;51.194;17.150;2023-07-13T17:30:21;28.30;99.90
17632;DHT22;8934;51.194;17.150;2023-07-13T17:33:25;28.30;99.90
17632;DHT22;8934;51.194;17.150;2023-07-13T17:36:15;28.20;99.90
17632;DHT22;8934;51.194;17.150;2023-07-13T17:39:12;28.30;99.90
17632;DHT22;8934;51.194;17.150;2023-07-13T17:42:00;28.30;99.90
17632;DHT22;8934;51.194;17.150;2023-07-13T17:44:50;28.10;99.90
17632;DHT22;8934;51.194;17.150;2023-07-13T17:47:39;28.00;99.90
17632;DHT22;8934;51.194;17.150;2023-07-13T17:50:30;27.70;99.90
17632;DHT22;8934;51.194;17.150;2023-07-13T17:53:22;27.10;99.90
17632;DHT22;8934;51.194;17.150;2023-07-13T17:56:11;26.50;99.90
17632;DHT22;8934;51.194;17.150;2023-07-13T17:59:00;25.90;99.90
17632;DHT22;8934;51.194;17.150;2023-07-13T18:01:48;25.50;99.90
17632;DHT22;8934;51.194;17.150;2023-07-13T18:04:37;25.00;99.90
17632;DHT22;8934;51.194;17.150;2023-07-13T18:07:24;24.60;99.90
17632;DHT22;8934;51.194;17.150;2023-07-13T18:10:14;24.20;99.90
17632;DHT22;8934;51.194;17.150;2023-07-13T18:13:02;23.90;99.90
17632;DHT22;8934;51.194;17.150;2023-07-13T18:15:50;23.70;99.90
17632;DHT22;8934;51.194;17.150;2023-07-13T18:18:38;23.50;99.90